Terminal Aerodrome Forecast
Issued by NWS

Home | Current Version | Previous Version | Text Only | Print | Product List | Glossary On
Versions: 1 2 3 4 5 6 7 8 9 10 11 12 13 14 15 16
000
FTUS43 KLSX 011100
TAFUIN
TAF
KUIN 011125Z 0112/0212 12007KT P6SM FEW250
     FM011500 16009KT P6SM FEW050 BKN250
     FM020000 16006KT P6SM VCTS SCT040CB BKN120
      TEMPO 0205/0208 3SM TSRA BKN035CB
     FM020800 08005KT P6SM SCT010 BKN035=

USA.gov is the U.S. government's official web portal to all federal, state and local government web resources and services.